Time;durP1;ratioP1;P1;durP2;ratioP2;P2;SDS_P1;SDS_P2;PMS_P1;PMS_P2;Temp;Humidity;BMP_temperature;BMP_pressure;BME280_temperature;BME280_humidity;BME280_pressure;Samples;Min_cycle;Max_cycle;Signal;HPM_P1;HPM_P2
2023/08/28 00:02:15;;;;;;;;;;;22.50;59.30;;;;;;5087236;28;19912;-54
2023/08/28 00:04:40;;;;;;;;;;;22.50;59.40;;;;;;5093222;28;20392;-56
2023/08/28 00:07:06;;;;;;;;;;;22.50;59.40;;;;;;5092986;28;20387;-55
2023/08/28 00:09:32;;;;;;;;;;;22.60;59.40;;;;;;5091259;28;20009;-55
2023/08/28 00:11:57;;;;;;;;;;;22.60;59.30;;;;;;5090728;28;19916;-56
2023/08/28 00:14:23;;;;;;;;;;;22.50;59.40;;;;;;5093035;28;19991;-55
2023/08/28 00:16:48;;;;;;;;;;;22.50;59.40;;;;;;5091874;28;19908;-56
2023/08/28 00:19:14;;;;;;;;;;;22.50;59.30;;;;;;5091453;28;19912;-56
2023/08/28 00:21:40;;;;;;;;;;;22.50;59.40;;;;;;5092929;28;20419;-56
2023/08/28 00:24:06;;;;;;;;;;;22.50;59.40;;;;;;5090705;28;19952;-55
2023/08/28 00:26:31;;;;;;;;;;;22.50;59.40;;;;;;5074222;28;19974;-55
2023/08/28 00:28:57;;;;;;;;;;;22.50;59.50;;;;;;5072782;28;19909;-55
2023/08/28 00:31:22;;;;;;;;;;;22.50;59.40;;;;;;5088958;28;19916;-56
2023/08/28 00:33:48;;;;;;;;;;;22.50;59.40;;;;;;5093008;28;20352;-57
2023/08/28 00:36:13;;;;;;;;;;;22.50;59.40;;;;;;5092788;28;19991;-56
2023/08/28 00:38:39;;;;;;;;;;;22.50;59.40;;;;;;5085180;28;20300;-55
2023/08/28 00:41:04;;;;;;;;;;;22.50;59.40;;;;;;5092731;28;19977;-56
2023/08/28 00:43:30;;;;;;;;;;;22.50;59.40;;;;;;5092836;28;19916;-56
2023/08/28 00:45:55;;;;;;;;;;;22.50;59.40;;;;;;5096707;28;19908;-54
2023/08/28 00:48:21;;;;;;;;;;;22.50;59.40;;;;;;5095118;28;19923;-56
2023/08/28 00:50:47;;;;;;;;;;;22.40;59.40;;;;;;5095175;28;19966;-56
2023/08/28 00:53:12;;;;;;;;;;;22.40;59.40;;;;;;5094231;28;19912;-55
2023/08/28 00:55:38;;;;;;;;;;;22.40;59.50;;;;;;5083852;28;20257;-55
2023/08/28 00:58:03;;;;;;;;;;;22.40;59.50;;;;;;5076012;28;19999;-56
2023/08/28 01:00:29;;;;;;;;;;;22.40;59.60;;;;;;5078726;28;19920;-55
2023/08/28 01:02:54;;;;;;;;;;;22.40;59.60;;;;;;5096261;28;19935;-56
2023/08/28 01:05:21;;;;;;;;;;;22.40;59.60;;;;;;5096418;28;19912;-56
2023/08/28 01:07:51;;;;;;;;;;;22.30;59.60;;;;;;5096283;28;19911;-56
2023/08/28 01:10:20;;;;;;;;;;;22.30;59.50;;;;;;5093185;28;19908;-56
2023/08/28 01:12:45;;;;;;;;;;;22.30;59.60;;;;;;5094994;28;19920;-55
2023/08/28 01:15:12;;;;;;;;;;;22.30;59.60;;;;;;5096047;28;19977;-55
2023/08/28 01:17:38;;;;;;;;;;;22.30;60.30;;;;;;5093846;28;20006;-55
2023/08/28 01:20:04;;;;;;;;;;;22.30;59.60;;;;;;5094638;28;19919;-55
2023/08/28 01:22:42;;;;;;;;;;;22.20;59.70;;;;;;5096053;28;20425;-54
2023/08/28 01:25:10;;;;;;;;;;;22.20;59.70;;;;;;5065275;28;19952;-56
2023/08/28 01:27:39;;;;;;;;;;;22.20;59.60;;;;;;5055669;28;20419;-56
2023/08/28 01:30:05;;;;;;;;;;;22.20;59.80;;;;;;5095916;28;19957;-55
2023/08/28 01:32:31;;;;;;;;;;;22.30;59.80;;;;;;5090481;28;19923;-55
2023/08/28 01:34:56;;;;;;;;;;;22.30;59.70;;;;;;5075603;28;20334;-55
2023/08/28 01:37:22;;;;;;;;;;;22.20;59.70;;;;;;5075562;28;19919;-56
2023/08/28 01:39:47;;;;;;;;;;;22.20;59.60;;;;;;5079722;28;20283;-55
2023/08/28 01:42:13;;;;;;;;;;;22.20;59.60;;;;;;5095905;28;19920;-56
2023/08/28 01:44:38;;;;;;;;;;;22.30;59.80;;;;;;5095659;28;19999;-55
2023/08/28 01:47:04;;;;;;;;;;;22.20;59.80;;;;;;5095447;28;19908;-54
2023/08/28 01:49:29;;;;;;;;;;;22.20;59.80;;;;;;5093912;28;19929;-55
2023/08/28 01:51:55;;;;;;;;;;;22.20;59.90;;;;;;5095624;28;19912;-56
2023/08/28 01:54:21;;;;;;;;;;;22.20;59.80;;;;;;5092377;28;19925;-56
2023/08/28 01:56:46;;;;;;;;;;;22.20;59.70;;;;;;5074818;28;19957;-55
2023/08/28 01:59:12;;;;;;;;;;;22.20;59.80;;;;;;5075080;28;19908;-54
2023/08/28 02:01:37;;;;;;;;;;;22.20;59.70;;;;;;5082144;28;19916;-55
2023/08/28 02:04:02;;;;;;;;;;;22.20;59.70;;;;;;5094868;28;19912;-56
2023/08/28 02:06:28;;;;;;;;;;;22.20;59.80;;;;;;5095428;28;19908;-56
2023/08/28 02:08:53;;;;;;;;;;;22.20;59.90;;;;;;5095212;28;19908;-55
2023/08/28 02:11:19;;;;;;;;;;;22.20;59.90;;;;;;5092657;28;19916;-56
2023/08/28 02:13:44;;;;;;;;;;;22.10;59.80;;;;;;5095043;28;19943;-55
2023/08/28 02:16:10;;;;;;;;;;;22.10;59.90;;;;;;5095022;28;19915;-55
2023/08/28 02:18:35;;;;;;;;;;;22.10;60.70;;;;;;5094926;28;19909;-56
2023/08/28 02:21:01;;;;;;;;;;;22.10;60.00;;;;;;5093055;28;20449;-55
2023/08/28 02:23:26;;;;;;;;;;;22.10;60.10;;;;;;5094729;28;20002;-55
2023/08/28 02:25:52;;;;;;;;;;;22.10;60.10;;;;;;5091302;28;19912;-56
2023/08/28 02:28:20;;;;;;;;;;;22.10;60.10;;;;;;5094596;28;19908;-55
2023/08/28 02:30:46;;;;;;;;;;;22.10;60.10;;;;;;5094602;28;20010;-55
2023/08/28 02:33:12;;;;;;;;;;;22.00;60.20;;;;;;5077604;28;19950;-56
2023/08/28 02:35:37;;;;;;;;;;;22.10;60.30;;;;;;5074368;28;19916;-55
2023/08/28 02:38:03;;;;;;;;;;;22.00;60.30;;;;;;5074230;28;20314;-55
2023/08/28 02:40:29;;;;;;;;;;;22.00;60.30;;;;;;5077538;28;19917;-55
2023/08/28 02:42:55;;;;;;;;;;;22.00;60.30;;;;;;5094555;28;19948;-56
2023/08/28 02:45:20;;;;;;;;;;;22.00;60.40;;;;;;5094456;28;19934;-56
2023/08/28 02:47:46;;;;;;;;;;;22.00;60.30;;;;;;5094280;28;19995;-54
2023/08/28 02:50:11;;;;;;;;;;;22.00;60.30;;;;;;5092111;28;20339;-55
2023/08/28 02:52:37;;;;;;;;;;;22.00;60.40;;;;;;5093211;28;20325;-56
2023/08/28 02:55:02;;;;;;;;;;;22.00;60.50;;;;;;5087062;28;19908;-56
2023/08/28 02:57:28;;;;;;;;;;;22.00;60.50;;;;;;5092253;28;19912;-55
2023/08/28 02:59:53;;;;;;;;;;;22.00;60.60;;;;;;5094151;28;19915;-56
2023/08/28 03:02:19;;;;;;;;;;;22.00;60.60;;;;;;5090032;28;20007;-55
2023/08/28 03:04:44;;;;;;;;;;;22.00;60.60;;;;;;5073832;28;19909;-55
2023/08/28 03:07:09;;;;;;;;;;;22.00;60.70;;;;;;5073033;28;20384;-56
2023/08/28 03:09:35;;;;;;;;;;;22.00;60.70;;;;;;5073340;28;19931;-56
2023/08/28 03:12:00;;;;;;;;;;;22.00;60.80;;;;;;5086490;28;19931;-56
2023/08/28 03:14:26;;;;;;;;;;;22.00;60.90;;;;;;5093871;28;19955;-56
2023/08/28 03:16:51;;;;;;;;;;;22.00;60.90;;;;;;5093880;28;19912;-56
2023/08/28 03:19:17;;;;;;;;;;;22.00;61.00;;;;;;5093816;28;19908;-55
2023/08/28 03:21:42;;;;;;;;;;;21.90;61.00;;;;;;5090371;28;19955;-54
2023/08/28 03:24:08;;;;;;;;;;;21.90;61.10;;;;;;5093667;28;20432;-55
2023/08/28 03:26:33;;;;;;;;;;;21.90;61.10;;;;;;5081462;28;19994;-55
2023/08/28 03:28:59;;;;;;;;;;;21.90;61.10;;;;;;5093555;28;20011;-56
2023/08/28 03:31:25;;;;;;;;;;;21.90;61.30;;;;;;5093447;28;19912;-55
2023/08/28 03:33:50;;;;;;;;;;;21.90;61.40;;;;;;5078955;28;19912;-56
2023/08/28 03:36:16;;;;;;;;;;;21.90;61.40;;;;;;5073096;28;20323;-54
2023/08/28 03:38:41;;;;;;;;;;;21.90;61.50;;;;;;5073128;28;19912;-55
2023/08/28 03:41:07;;;;;;;;;;;21.80;61.50;;;;;;5074302;28;19912;-55
2023/08/28 03:43:32;;;;;;;;;;;21.80;61.40;;;;;;5093370;28;19984;-55
2023/08/28 03:45:58;;;;;;;;;;;21.80;61.40;;;;;;5093181;28;19997;-55
2023/08/28 03:48:23;;;;;;;;;;;21.90;61.50;;;;;;5091134;28;19916;-55
2023/08/28 03:50:48;;;;;;;;;;;21.90;61.50;;;;;;5092979;28;19924;-55
2023/08/28 03:53:14;;;;;;;;;;;21.90;61.50;;;;;;5093214;28;19915;-55
2023/08/28 03:55:39;;;;;;;;;;;21.90;61.60;;;;;;5081456;28;20008;-56
2023/08/28 03:58:05;;;;;;;;;;;21.80;61.60;;;;;;5088829;28;19912;-56
2023/08/28 04:00:33;;;;;;;;;;;21.80;61.70;;;;;;5093105;28;19909;-56
2023/08/28 04:02:59;;;;;;;;;;;21.80;61.70;;;;;;5093064;28;19908;-55
2023/08/28 04:05:26;;;;;;;;;;;21.80;61.80;;;;;;5093079;28;19908;-56
2023/08/28 04:07:52;;;;;;;;;;;21.80;61.90;;;;;;5090401;28;19967;-56
2023/08/28 04:10:18;;;;;;;;;;;21.80;61.90;;;;;;5087293;28;19912;-56
2023/08/28 04:12:44;;;;;;;;;;;21.70;61.90;;;;;;5072733;28;19920;-55
2023/08/28 04:15:09;;;;;;;;;;;21.70;61.90;;;;;;5072607;28;20007;-54
2023/08/28 04:17:35;;;;;;;;;;;21.80;62.00;;;;;;5072945;28;19982;-55
2023/08/28 04:20:08;;;;;;;;;;;21.80;62.00;;;;;;5075382;28;19916;-56
2023/08/28 04:22:34;;;;;;;;;;;21.80;62.10;;;;;;5090525;28;19962;-55
2023/08/28 04:25:00;;;;;;;;;;;21.70;62.00;;;;;;5088988;28;19984;-55
2023/08/28 04:27:26;;;;;;;;;;;21.70;62.10;;;;;;5094493;28;19912;-55
2023/08/28 04:29:51;;;;;;;;;;;21.70;62.30;;;;;;5097006;28;19919;-56
2023/08/28 04:32:16;;;;;;;;;;;21.70;62.20;;;;;;5096798;28;20011;-56
2023/08/28 04:34:42;;;;;;;;;;;21.70;62.40;;;;;;5093935;28;19920;-56
2023/08/28 04:37:08;;;;;;;;;;;21.70;63.20;;;;;;5094897;28;19912;-55
2023/08/28 04:39:33;;;;;;;;;;;21.70;62.40;;;;;;5094608;28;20380;-55
2023/08/28 04:41:59;;;;;;;;;;;21.70;62.40;;;;;;5096802;28;19930;-55
2023/08/28 04:44:24;;;;;;;;;;;21.70;62.50;;;;;;5096827;28;19955;-55
2023/08/28 04:46:50;;;;;;;;;;;21.70;62.60;;;;;;5095389;28;19912;-55
2023/08/28 04:49:15;;;;;;;;;;;21.60;62.50;;;;;;5095700;28;19965;-56
2023/08/28 04:51:41;;;;;;;;;;;21.60;62.40;;;;;;5096745;28;19960;-56
2023/08/28 04:54:06;;;;;;;;;;;21.60;62.50;;;;;;5096641;28;19908;-55
2023/08/28 04:56:32;;;;;;;;;;;21.60;62.50;;;;;;5091563;28;19982;-55
2023/08/28 04:58:57;;;;;;;;;;;21.60;62.40;;;;;;5096462;28;19931;-56
2023/08/28 05:01:23;;;;;;;;;;;21.70;62.50;;;;;;5095343;28;20391;-54
2023/08/28 05:03:48;;;;;;;;;;;21.70;62.40;;;;;;5093937;28;19989;-54
2023/08/28 05:06:14;;;;;;;;;;;21.60;62.40;;;;;;5096367;28;20064;-55
2023/08/28 05:08:39;;;;;;;;;;;21.60;62.40;;;;;;5096312;28;19961;-56
2023/08/28 05:11:04;;;;;;;;;;;21.60;62.50;;;;;;5093956;28;19916;-55
2023/08/28 05:13:30;;;;;;;;;;;21.60;62.60;;;;;;5096295;28;19908;-56
2023/08/28 05:15:55;;;;;;;;;;;21.60;62.60;;;;;;5096195;28;20279;-55
2023/08/28 05:18:22;;;;;;;;;;;21.60;62.60;;;;;;5092993;28;19966;-56
2023/08/28 05:20:47;;;;;;;;;;;21.60;62.60;;;;;;5075905;28;19915;-56
2023/08/28 05:23:12;;;;;;;;;;;21.60;62.70;;;;;;5091459;28;19912;-56
2023/08/28 05:25:38;;;;;;;;;;;21.60;62.80;;;;;;5077789;28;19912;-55
2023/08/28 05:28:04;;;;;;;;;;;21.60;62.90;;;;;;5095989;28;19908;-56
2023/08/28 05:30:29;;;;;;;;;;;21.60;63.60;;;;;;5090764;28;20384;-55
2023/08/28 05:32:54;;;;;;;;;;;21.60;62.80;;;;;;5095698;28;19935;-56
2023/08/28 05:35:20;;;;;;;;;;;21.60;62.80;;;;;;5093762;28;19957;-55
2023/08/28 05:37:45;;;;;;;;;;;21.50;62.90;;;;;;5090926;28;19916;-55
2023/08/28 05:40:14;;;;;;;;;;;21.60;63.00;;;;;;5094363;28;19912;-55
2023/08/28 05:42:40;;;;;;;;;;;21.60;62.90;;;;;;5092833;28;20053;-56
2023/08/28 05:45:06;;;;;;;;;;;21.60;63.00;;;;;;5095682;28;19908;-55
2023/08/28 05:47:32;;;;;;;;;;;21.60;63.00;;;;;;5094770;28;19912;-55
2023/08/28 05:49:58;;;;;;;;;;;21.60;63.00;;;;;;5093753;28;19927;-56
2023/08/28 05:52:23;;;;;;;;;;;21.60;63.00;;;;;;5095495;28;19916;-55
2023/08/28 05:54:49;;;;;;;;;;;21.60;63.00;;;;;;5090838;28;19909;-55
2023/08/28 05:57:14;;;;;;;;;;;21.60;63.00;;;;;;5085466;28;19912;-56
2023/08/28 05:59:40;;;;;;;;;;;21.60;63.00;;;;;;5094485;28;19919;-56
2023/08/28 06:02:05;;;;;;;;;;;21.60;63.10;;;;;;5094120;28;19908;-56
2023/08/28 06:04:31;;;;;;;;;;;21.60;63.10;;;;;;5095314;28;19916;-56
2023/08/28 06:06:56;;;;;;;;;;;21.60;63.10;;;;;;5093610;28;19995;-56
2023/08/28 06:09:22;;;;;;;;;;;21.60;63.10;;;;;;5095330;28;19915;-56
2023/08/28 06:11:48;;;;;;;;;;;21.60;63.10;;;;;;5093310;28;19920;-55
2023/08/28 06:14:13;;;;;;;;;;;21.60;63.10;;;;;;5095063;28;19909;-56
2023/08/28 06:16:39;;;;;;;;;;;21.60;63.20;;;;;;5095172;28;19908;-56
2023/08/28 06:19:04;;;;;;;;;;;21.60;63.20;;;;;;5093639;28;20339;-55
2023/08/28 06:21:30;;;;;;;;;;;21.60;63.20;;;;;;5095044;28;20346;-56
2023/08/28 06:23:55;;;;;;;;;;;21.70;63.40;;;;;;5095023;28;19909;-55
2023/08/28 06:26:21;;;;;;;;;;;21.60;63.30;;;;;;5076893;28;20373;-56
2023/08/28 06:28:46;;;;;;;;;;;21.70;63.50;;;;;;5095026;28;19914;-55
2023/08/28 06:31:12;;;;;;;;;;;21.60;63.50;;;;;;5094524;28;19916;-56
2023/08/28 06:33:37;;;;;;;;;;;21.60;63.50;;;;;;5094759;28;19961;-55
2023/08/28 06:36:03;;;;;;;;;;;21.70;63.60;;;;;;5094533;28;19962;-56
2023/08/28 06:38:28;;;;;;;;;;;21.70;63.60;;;;;;5093447;28;20008;-55
2023/08/28 06:40:54;;;;;;;;;;;21.70;63.70;;;;;;5094701;28;19912;-56
2023/08/28 06:43:19;;;;;;;;;;;21.60;63.70;;;;;;5091095;28;19919;-55
2023/08/28 06:45:45;;;;;;;;;;;21.60;63.70;;;;;;5094696;28;19908;-56
2023/08/28 06:48:10;;;;;;;;;;;21.70;63.90;;;;;;5094551;28;19909;-55
2023/08/28 06:50:36;;;;;;;;;;;21.60;63.80;;;;;;5091595;28;19955;-54
2023/08/28 06:53:02;;;;;;;;;;;21.60;64.00;;;;;;5094405;28;19920;-55
2023/08/28 06:55:27;;;;;;;;;;;21.60;64.00;;;;;;5082264;28;19913;-56
2023/08/28 06:57:53;;;;;;;;;;;21.60;64.20;;;;;;5080875;28;19924;-55
2023/08/28 07:00:19;;;;;;;;;;;21.60;64.30;;;;;;5094564;28;19999;-55
2023/08/28 07:02:45;;;;;;;;;;;21.60;64.40;;;;;;5094662;28;20339;-56
2023/08/28 07:05:10;;;;;;;;;;;21.60;64.40;;;;;;5093112;28;19916;-57
2023/08/28 07:07:35;;;;;;;;;;;21.60;64.40;;;;;;5091041;28;19912;-55
2023/08/28 07:10:01;;;;;;;;;;;21.60;64.40;;;;;;5094424;28;20268;-56
2023/08/28 07:12:26;;;;;;;;;;;21.60;64.40;;;;;;5087841;28;19917;-56
2023/08/28 07:15:11;;;;;;;;;;;21.60;64.40;;;;;;5073924;28;20276;-55
2023/08/28 07:17:36;;;;;;;;;;;21.60;64.50;;;;;;5073763;28;19909;-55
2023/08/28 07:20:04;;;;;;;;;;;21.60;64.50;;;;;;5073782;28;20003;-56
2023/08/28 07:22:29;;;;;;;;;;;21.60;64.60;;;;;;5075562;28;19913;-55
2023/08/28 07:24:55;;;;;;;;;;;21.60;64.60;;;;;;5088452;28;20022;-55
2023/08/28 07:27:21;;;;;;;;;;;21.60;64.70;;;;;;5073743;28;19970;-55
2023/08/28 07:29:46;;;;;;;;;;;21.60;64.80;;;;;;5093953;28;20387;-55
2023/08/28 07:32:12;;;;;;;;;;;21.60;64.80;;;;;;5093587;28;19912;-55
2023/08/28 07:34:37;;;;;;;;;;;21.60;64.90;;;;;;5090205;28;19932;-56
2023/08/28 07:37:04;;;;;;;;;;;21.60;64.90;;;;;;5093804;28;19908;-56
2023/08/28 07:39:29;;;;;;;;;;;21.60;65.00;;;;;;5093837;28;19973;-56
2023/08/28 07:41:56;;;;;;;;;;;21.60;65.10;;;;;;5093705;28;19908;-55
2023/08/28 07:44:22;;;;;;;;;;;21.60;65.10;;;;;;5091515;28;19923;-55
2023/08/28 07:46:47;;;;;;;;;;;21.60;65.20;;;;;;5093677;28;19908;-55
2023/08/28 07:49:13;;;;;;;;;;;21.60;65.20;;;;;;5093451;28;20012;-56
2023/08/28 07:51:38;;;;;;;;;;;21.60;65.20;;;;;;5093662;28;19919;-56
2023/08/28 07:54:04;;;;;;;;;;;21.60;65.30;;;;;;5091632;28;20376;-54
2023/08/28 07:56:29;;;;;;;;;;;21.60;65.40;;;;;;5082124;28;19912;-55
2023/08/28 07:58:54;;;;;;;;;;;21.60;65.40;;;;;;5091035;28;20006;-55
2023/08/28 08:01:20;;;;;;;;;;;21.60;65.50;;;;;;5093194;28;19908;-55
2023/08/28 08:03:46;;;;;;;;;;;21.60;65.50;;;;;;5093643;28;20440;-55
2023/08/28 08:06:11;;;;;;;;;;;21.60;65.50;;;;;;5090630;28;19916;-55
2023/08/28 08:08:36;;;;;;;;;;;21.60;65.50;;;;;;5093484;28;19908;-55
2023/08/28 08:11:02;;;;;;;;;;;21.60;65.60;;;;;;5093192;28;19912;-56
2023/08/28 08:13:27;;;;;;;;;;;21.60;65.60;;;;;;5087516;28;19999;-56
2023/08/28 08:15:53;;;;;;;;;;;21.60;65.60;;;;;;5073172;28;19909;-55
2023/08/28 08:18:18;;;;;;;;;;;21.60;65.90;;;;;;5073067;28;19920;-55
2023/08/28 08:20:44;;;;;;;;;;;21.60;66.10;;;;;;5073196;28;20426;-55
2023/08/28 08:23:10;;;;;;;;;;;21.60;66.10;;;;;;5072583;28;19909;-55
2023/08/28 08:25:35;;;;;;;;;;;21.60;66.00;;;;;;5080417;28;19944;-56
2023/08/28 08:28:02;;;;;;;;;;;21.60;66.10;;;;;;5073146;28;19931;-55
2023/08/28 08:30:28;;;;;;;;;;;21.60;66.00;;;;;;5089902;28;19919;-55
2023/08/28 08:32:53;;;;;;;;;;;21.60;66.10;;;;;;5093274;28;19916;-56
2023/08/28 08:35:18;;;;;;;;;;;21.60;66.10;;;;;;5073803;28;19913;-55
2023/08/28 08:37:46;;;;;;;;;;;21.60;66.20;;;;;;5073036;28;20406;-55
2023/08/28 08:40:13;;;;;;;;;;;21.60;66.30;;;;;;5072255;28;19916;-55
2023/08/28 08:42:38;;;;;;;;;;;21.60;66.40;;;;;;5091217;28;19999;-55
2023/08/28 08:45:04;;;;;;;;;;;21.60;66.30;;;;;;5090136;28;20006;-56
2023/08/28 08:47:30;;;;;;;;;;;21.60;66.20;;;;;;5093004;28;19909;-56
2023/08/28 08:49:56;;;;;;;;;;;21.60;66.20;;;;;;5092816;28;19928;-56
2023/08/28 08:52:22;;;;;;;;;;;21.70;66.30;;;;;;5092699;28;20007;-56
2023/08/28 08:54:47;;;;;;;;;;;21.70;66.30;;;;;;5087027;28;19977;-56
2023/08/28 08:57:13;;;;;;;;;;;21.70;66.30;;;;;;5070949;28;19988;-56
2023/08/28 08:59:39;;;;;;;;;;;21.70;66.40;;;;;;5070250;28;19909;-56
2023/08/28 09:02:04;;;;;;;;;;;21.70;66.40;;;;;;5072584;28;19908;-55
2023/08/28 09:04:31;;;;;;;;;;;21.70;66.50;;;;;;5072312;28;19908;-56
2023/08/28 09:06:58;;;;;;;;;;;21.70;66.50;;;;;;5089523;28;19912;-55
2023/08/28 09:09:23;;;;;;;;;;;21.70;66.40;;;;;;5095450;28;19930;-56
2023/08/28 09:11:49;;;;;;;;;;;21.70;66.50;;;;;;5096428;28;19912;-55
2023/08/28 09:14:14;;;;;;;;;;;21.70;66.50;;;;;;5081659;28;19913;-56
2023/08/28 09:16:40;;;;;;;;;;;21.70;66.40;;;;;;5076103;28;19916;-56
2023/08/28 09:19:06;;;;;;;;;;;21.70;66.40;;;;;;5076077;28;20045;-55
2023/08/28 09:21:35;;;;;;;;;;;21.70;66.40;;;;;;5076158;28;19912;-56
2023/08/28 09:24:00;;;;;;;;;;;21.70;66.40;;;;;;5084607;28;19912;-56
2023/08/28 09:26:26;;;;;;;;;;;21.70;66.20;;;;;;5078075;28;19994;-55
2023/08/28 09:28:58;;;;;;;;;;;21.70;66.30;;;;;;5082562;28;19962;-55
2023/08/28 09:31:27;;;;;;;;;;;21.70;66.20;;;;;;5087713;28;20280;-55
2023/08/28 09:33:53;;;;;;;;;;;21.80;66.30;;;;;;5075885;28;20007;-55
2023/08/28 09:36:18;;;;;;;;;;;21.70;66.10;;;;;;5075686;28;19952;-55
2023/08/28 09:38:44;;;;;;;;;;;21.70;65.90;;;;;;5075819;28;19908;-55
2023/08/28 09:41:12;;;;;;;;;;;21.70;65.70;;;;;;5077559;28;19920;-55
2023/08/28 09:43:38;;;;;;;;;;;21.80;65.70;;;;;;5093783;28;19912;-56
2023/08/28 09:46:03;;;;;;;;;;;21.80;65.60;;;;;;5094889;28;20382;-55
2023/08/28 09:48:32;;;;;;;;;;;21.80;65.70;;;;;;5095771;28;19908;-56
2023/08/28 09:50:59;;;;;;;;;;;21.80;65.70;;;;;;5095500;28;19920;-56
2023/08/28 09:53:26;;;;;;;;;;;21.80;65.50;;;;;;5094447;28;20402;-56
2023/08/28 09:55:51;;;;;;;;;;;21.90;65.50;;;;;;5082430;28;19940;-56
2023/08/28 09:58:17;;;;;;;;;;;21.90;65.30;;;;;;5075804;28;19917;-56
2023/08/28 10:00:43;;;;;;;;;;;21.90;65.30;;;;;;5084807;28;19967;-56
2023/08/28 10:03:09;;;;;;;;;;;21.90;65.30;;;;;;5095673;28;20388;-56
2023/08/28 10:05:38;;;;;;;;;;;21.90;65.20;;;;;;5095468;28;19943;-56
2023/08/28 10:08:07;;;;;;;;;;;21.90;65.10;;;;;;5095250;28;19998;-56
2023/08/28 10:10:33;;;;;;;;;;;21.90;65.00;;;;;;5093949;28;20138;-56
2023/08/28 10:13:00;;;;;;;;;;;21.90;65.10;;;;;;5094180;28;20476;-56
2023/08/28 10:15:26;;;;;;;;;;;21.90;65.00;;;;;;5091851;28;19916;-56
2023/08/28 10:17:51;;;;;;;;;;;21.90;65.00;;;;;;5094848;28;20377;-56
2023/08/28 10:20:17;;;;;;;;;;;21.90;64.80;;;;;;5095245;28;19915;-56
2023/08/28 10:22:42;;;;;;;;;;;22.00;64.80;;;;;;5092355;28;19978;-56
2023/08/28 10:25:08;;;;;;;;;;;22.00;64.70;;;;;;5087766;28;19908;-56
2023/08/28 10:27:33;;;;;;;;;;;22.00;64.70;;;;;;5075120;28;19916;-56
2023/08/28 10:29:59;;;;;;;;;;;22.00;64.70;;;;;;5082883;28;19999;-56
2023/08/28 10:32:24;;;;;;;;;;;22.00;64.60;;;;;;5093683;28;19920;-55
2023/08/28 10:34:51;;;;;;;;;;;22.00;64.60;;;;;;5093723;28;20015;-56
2023/08/28 10:37:16;;;;;;;;;;;22.00;64.60;;;;;;5094084;28;20390;-56
2023/08/28 10:39:42;;;;;;;;;;;22.10;64.60;;;;;;5094839;28;19912;-56
2023/08/28 10:42:12;;;;;;;;;;;22.10;64.70;;;;;;5094675;28;19939;-55
2023/08/28 10:44:37;;;;;;;;;;;22.10;64.40;;;;;;5091231;28;19935;-54
2023/08/28 10:47:03;;;;;;;;;;;22.20;64.20;;;;;;5094511;28;20364;-57
2023/08/28 10:49:28;;;;;;;;;;;22.10;64.10;;;;;;5094523;28;19920;-56
2023/08/28 10:52:01;;;;;;;;;;;22.10;64.20;;;;;;5094541;28;19912;-57
2023/08/28 10:54:34;;;;;;;;;;;22.10;64.20;;;;;;5091459;28;19919;-57
2023/08/28 10:57:04;;;;;;;;;;;22.10;64.30;;;;;;5089983;28;19917;-56
2023/08/28 10:59:30;;;;;;;;;;;22.10;64.00;;;;;;5073318;28;19916;-57
2023/08/28 11:01:56;;;;;;;;;;;22.10;63.80;;;;;;5054221;28;20368;-55
2023/08/28 11:04:22;;;;;;;;;;;22.10;63.70;;;;;;5054300;28;19969;-55
2023/08/28 11:06:48;;;;;;;;;;;22.10;63.60;;;;;;5066556;28;19912;-55
2023/08/28 11:09:33;;;;;;;;;;;22.10;63.60;;;;;;5093278;28;19912;-55
2023/08/28 11:12:01;;;;;;;;;;;22.10;63.60;;;;;;5093637;28;20411;-55
2023/08/28 11:14:33;;;;;;;;;;;22.00;63.30;;;;;;5092364;28;20346;-54
2023/08/28 11:17:08;;;;;;;;;;;22.10;63.00;;;;;;5093885;28;19908;-55
2023/08/28 11:19:55;;;;;;;;;;;22.00;63.00;;;;;;5091367;28;19919;-55
2023/08/28 11:22:36;;;;;;;;;;;22.10;62.90;;;;;;5093877;28;19915;-55
2023/08/28 11:25:04;;;;;;;;;;;22.00;62.90;;;;;;5087258;28;19919;-55
2023/08/28 11:27:33;;;;;;;;;;;22.00;62.80;;;;;;5073485;28;19908;-55
2023/08/28 11:30:06;;;;;;;;;;;22.00;62.90;;;;;;5082007;28;20401;-57
2023/08/28 11:32:32;;;;;;;;;;;22.00;62.90;;;;;;5095307;28;19912;-56
2023/08/28 11:34:58;;;;;;;;;;;22.00;62.90;;;;;;5093688;28;20049;-56
2023/08/28 11:37:34;;;;;;;;;;;21.90;62.80;;;;;;5093646;28;20066;-58
2023/08/28 11:39:59;;;;;;;;;;;22.00;63.00;;;;;;5081841;28;19913;-56
2023/08/28 11:42:26;;;;;;;;;;;22.00;62.70;;;;;;5073343;28;19915;-56
2023/08/28 11:44:51;;;;;;;;;;;22.10;62.60;;;;;;5088213;28;19913;-56
2023/08/28 11:47:37;;;;;;;;;;;22.10;62.50;;;;;;5073450;28;19908;-56
2023/08/28 11:50:05;;;;;;;;;;;22.10;62.60;;;;;;5072620;28;19977;-56
2023/08/28 11:52:31;;;;;;;;;;;22.30;62.60;;;;;;5088807;28;20281;-56
2023/08/28 11:55:03;;;;;;;;;;;22.30;62.00;;;;;;5084117;28;20007;-56
2023/08/28 11:57:28;;;;;;;;;;;22.30;61.80;;;;;;5073273;28;19962;-56
2023/08/28 11:59:55;;;;;;;;;;;22.30;61.90;;;;;;5078513;28;19912;-56
2023/08/28 12:02:20;;;;;;;;;;;22.30;62.00;;;;;;5093514;28;19915;-55
2023/08/28 12:04:48;;;;;;;;;;;22.30;62.40;;;;;;5091745;28;19995;-55
2023/08/28 12:07:17;;;;;;;;;;;22.30;62.00;;;;;;5093161;28;20404;-56
2023/08/28 12:09:43;;;;;;;;;;;22.30;62.20;;;;;;5093208;28;19920;-56
2023/08/28 12:12:08;;;;;;;;;;;22.40;62.10;;;;;;5088171;28;19915;-56
2023/08/28 12:14:34;;;;;;;;;;;22.40;61.70;;;;;;5090866;28;20774;-56
2023/08/28 12:17:00;;;;;;;;;;;22.40;62.10;;;;;;5093169;28;20292;-56
2023/08/28 12:19:25;;;;;;;;;;;22.50;61.40;;;;;;5091739;28;19943;-56
2023/08/28 12:21:51;;;;;;;;;;;22.50;61.50;;;;;;5091053;28;19957;-56
2023/08/28 12:24:16;;;;;;;;;;;22.50;62.30;;;;;;5092895;28;19908;-56
2023/08/28 12:26:43;;;;;;;;;;;22.40;61.50;;;;;;5072940;28;19913;-56
2023/08/28 12:29:08;;;;;;;;;;;22.50;61.20;;;;;;5073013;28;20008;-56
2023/08/28 12:31:34;;;;;;;;;;;22.50;61.40;;;;;;5087182;28;20002;-56
2023/08/28 12:34:06;;;;;;;;;;;22.50;61.10;;;;;;5092952;28;19922;-55
2023/08/28 12:36:38;;;;;;;;;;;22.60;61.10;;;;;;5092794;28;20289;-56
2023/08/28 12:39:03;;;;;;;;;;;22.60;61.60;;;;;;5092856;28;19908;-56
2023/08/28 12:41:32;;;;;;;;;;;22.60;61.30;;;;;;5093857;28;19909;-56
2023/08/28 12:43:57;;;;;;;;;;;22.60;61.80;;;;;;5094476;28;19962;-55
2023/08/28 12:46:23;;;;;;;;;;;22.70;61.70;;;;;;5096018;28;19951;-56
2023/08/28 12:48:48;;;;;;;;;;;22.70;61.10;;;;;;5096702;28;19908;-56
2023/08/28 12:51:14;;;;;;;;;;;22.60;62.10;;;;;;5095507;28;19965;-56
2023/08/28 12:53:39;;;;;;;;;;;22.50;61.50;;;;;;5095455;28;19926;-56
2023/08/28 12:56:04;;;;;;;;;;;22.60;61.50;;;;;;5081439;28;20280;-56
2023/08/28 12:58:30;;;;;;;;;;;22.50;61.40;;;;;;5075500;28;19961;-56
2023/08/28 13:00:55;;;;;;;;;;;22.50;61.40;;;;;;5094770;28;20372;-56
2023/08/28 13:03:21;;;;;;;;;;;22.40;61.50;;;;;;5093957;28;20335;-56
2023/08/28 13:05:48;;;;;;;;;;;22.40;61.30;;;;;;5096556;28;19931;-56
2023/08/28 13:08:13;;;;;;;;;;;22.40;61.40;;;;;;5096633;28;19930;-56
2023/08/28 13:10:39;;;;;;;;;;;22.40;61.30;;;;;;5096679;28;20404;-56
2023/08/28 13:13:05;;;;;;;;;;;22.40;61.40;;;;;;5094716;28;19916;-56
2023/08/28 13:15:30;;;;;;;;;;;22.40;61.50;;;;;;5094705;28;19974;-56
2023/08/28 13:17:56;;;;;;;;;;;22.50;61.10;;;;;;5097098;28;19912;-56
2023/08/28 13:20:21;;;;;;;;;;;22.50;61.10;;;;;;5096748;28;19914;-57
2023/08/28 13:22:47;;;;;;;;;;;22.50;61.20;;;;;;5096226;28;19951;-56
2023/08/28 13:25:12;;;;;;;;;;;22.60;61.30;;;;;;5086366;28;20016;-55
2023/08/28 13:27:38;;;;;;;;;;;22.60;61.20;;;;;;5076015;28;19919;-56
2023/08/28 13:30:07;;;;;;;;;;;22.70;61.20;;;;;;5084471;28;19958;-56
2023/08/28 13:32:32;;;;;;;;;;;22.60;62.10;;;;;;5091823;28;19992;-55
2023/08/28 13:34:58;;;;;;;;;;;22.60;61.10;;;;;;5096080;28;19908;-55
2023/08/28 13:37:23;;;;;;;;;;;22.60;61.40;;;;;;5095786;28;19912;-55
2023/08/28 13:39:48;;;;;;;;;;;22.60;60.70;;;;;;5095812;28;19908;-55
2023/08/28 13:42:14;;;;;;;;;;;22.50;60.90;;;;;;5088078;28;20313;-56
2023/08/28 13:44:39;;;;;;;;;;;22.50;61.00;;;;;;5078803;28;20348;-55
2023/08/28 13:47:06;;;;;;;;;;;22.50;61.00;;;;;;5084809;28;19912;-57
2023/08/28 13:49:31;;;;;;;;;;;22.50;61.10;;;;;;5082358;28;19920;-56
2023/08/28 13:51:57;;;;;;;;;;;22.70;60.90;;;;;;5070077;28;19917;-56
2023/08/28 13:54:22;;;;;;;;;;;22.70;60.20;;;;;;5080472;28;19916;-56
2023/08/28 13:56:47;;;;;;;;;;;22.60;60.10;;;;;;5073566;28;19912;-55
2023/08/28 13:59:13;;;;;;;;;;;22.60;60.60;;;;;;5083888;28;19988;-56
2023/08/28 14:01:40;;;;;;;;;;;22.60;60.10;;;;;;5077476;28;19912;-56
2023/08/28 14:04:06;;;;;;;;;;;22.60;60.00;;;;;;5075039;28;19909;-56
2023/08/28 14:06:32;;;;;;;;;;;22.70;60.20;;;;;;5074991;28;20407;-56
2023/08/28 14:08:57;;;;;;;;;;;22.70;60.80;;;;;;5081624;28;20010;-56
2023/08/28 14:11:23;;;;;;;;;;;22.70;59.90;;;;;;5095197;28;19944;-56